This is the latest recevied weather packets stored in our database for station/object KD8FRE. If no packets are shown the sender has not sent any weather packets the latest 10 day(s).
| Time | Temp. | Humidity | Pressure | Rain* | Wind** | Luminosity | Snow |
|---|---|---|---|---|---|---|---|
| 1777809242 | 6.11° C | 56% | 1013.7 hPa | 0 mm | - | 68 W/m² | - |
| 1777808940 | 5.56° C | 57% | 1013.7 hPa | 0 mm | - | 63 W/m² | - |
| 1777808333 | 5.56° C | 56% | 1013.8 hPa | 0 mm | - | 56 W/m² | - |
| 1777807723 | 5° C | 58% | 1013.5 hPa | 0 mm | - | 43 W/m² | - |
| 1777806212 | 4.44° C | 58% | 1013.8 hPa | 0 mm | - | 18 W/m² | - |
| 1777805908 | 3.89° C | 59% | 1013.8 hPa | 0 mm | - | 15 W/m² | - |
| 1777805303 | 3.33° C | 62% | 1013.8 hPa | 0 mm | - | 9 W/m² | - |
| 1777804698 | 2.78° C | 62% | 1013.7 hPa | 0 mm | - | 5 W/m² | - |
| 1777804396 | 2.78° C | 63% | 1013.8 hPa | 0 mm | - | 3 W/m² | - |
| 1777804093 | 2.78° C | 63% | 1013.7 hPa | 0 mm | - | 2 W/m² | - |
| 1777803789 | 2.78° C | 62% | 1013.9 hPa | 0 mm | - | 1 W/m² | - |
| 1777803484 | 2.78° C | 62% | 1013.9 hPa | 0 mm | - | 1 W/m² | - |
| 1777803183 | 2.78° C | 62% | 1014 hPa | 0 mm | - | 0 W/m² | - |
| 1777802879 | 2.78° C | 62% | 1014 hPa | 0 mm | - | 0 W/m² | - |
| 1777802578 | 2.78° C | 60% | 1014 hPa | 0 mm | - | 0 W/m² | - |
| 1777802275 | 2.78° C | 60% | 1013.9 hPa | 0 mm | - | 0 W/m² | - |
| 1777801670 | 2.78° C | 59% | 1014 hPa | 0 mm | - | 0 W/m² | - |
| 1777801063 | 3.33° C | 57% | 1014.1 hPa | 0 mm | - | 0 W/m² | - |
| 1777800760 | 3.33° C | 57% | 1014.2 hPa | 0 mm | - | 0 W/m² | - |
| 1777800456 | 3.89° C | 55% | 1014.5 hPa | 0 mm | - | 0 W/m² | - |
| 1777800153 | 3.89° C | 55% | 1014.4 hPa | 0 mm | - | 0 W/m² | - |
| 1777799847 | 3.89° C | 54% | 1014.4 hPa | 0 mm | - | 0 W/m² | - |
| 1777799546 | 3.89° C | 54% | 1014.4 hPa | 0 mm | - | 0 W/m² | - |
| 1777799241 | 3.89° C | 54% | 1014.4 hPa | 0 mm | - | 0 W/m² | - |
| 1777798937 | 3.33° C | 55% | 1014.6 hPa | 0 mm | - | 0 W/m² | - |
* Rain latest hour (hover to see other rain measurements)
** Current wind speed in m/s (hover to see current wind gust speed)